createdAt,value
2017-12-11T00:01:00.620Z,52.22
2017-12-11T00:03:31.582Z,53.10
2017-12-11T00:06:01.698Z,53.07
2017-12-11T00:08:36.061Z,52.83
2017-12-11T00:11:08.073Z,52.61
2017-12-11T00:13:39.223Z,52.90
2017-12-11T00:16:18.614Z,53.38
2017-12-11T00:18:49.631Z,54.45
2017-12-11T00:21:20.329Z,53.88
2017-12-11T00:23:55.329Z,52.93
2017-12-11T00:26:26.689Z,53.14
2017-12-11T00:28:58.361Z,54.12
2017-12-11T00:31:29.029Z,54.68
2017-12-11T00:34:08.383Z,53.00
2017-12-11T00:36:43.211Z,52.85
2017-12-11T00:39:15.483Z,52.53
2017-12-11T00:41:46.321Z,53.63
2017-12-11T00:44:17.144Z,54.19
2017-12-11T00:46:50.557Z,54.04
2017-12-11T00:49:21.559Z,54.12
2017-12-11T00:51:56.580Z,53.64
2017-12-11T00:54:33.713Z,54.12
2017-12-11T00:57:05.090Z,55.37
2017-12-11T00:59:36.224Z,54.77
2017-12-11T01:02:07.080Z,54.21
2017-12-11T01:04:40.208Z,53.85
2017-12-11T01:07:12.652Z,53.75
2017-12-11T01:09:45.336Z,54.11
2017-12-11T01:12:16.702Z,53.92
2017-12-11T01:14:50.420Z,53.26
2017-12-11T01:17:21.287Z,53.86
2017-12-11T01:19:52.761Z,54.02
2017-12-11T01:22:24.593Z,53.77
2017-12-11T01:24:59.248Z,53.02
2017-12-11T01:27:31.521Z,53.27
2017-12-11T01:30:03.696Z,54.39
2017-12-11T01:32:38.214Z,55.16
2017-12-11T01:35:13.607Z,55.13
2017-12-11T01:37:43.274Z,54.07
2017-12-11T01:40:14.294Z,54.29
2017-12-11T01:42:46.242Z,54.50
2017-12-11T01:45:17.771Z,54.92
2017-12-11T01:47:49.713Z,55.31
2017-12-11T01:50:26.391Z,56.45
2017-12-11T01:53:00.399Z,56.74
2017-12-11T01:55:33.434Z,56.40
2017-12-11T01:58:05.533Z,55.04
2017-12-11T02:00:35.650Z,55.05
2017-12-11T02:03:10.432Z,53.86
2017-12-11T02:05:43.331Z,54.48
2017-12-11T02:08:15.622Z,55.84
2017-12-11T02:10:46.967Z,56.79
2017-12-11T02:13:20.543Z,56.50
2017-12-11T02:15:50.266Z,55.91
2017-12-11T02:18:27.129Z,55.72
2017-12-11T02:20:58.296Z,54.91
2017-12-11T02:23:30.415Z,55.32
2017-12-11T02:26:04.554Z,55.09
2017-12-11T02:28:43.386Z,55.06
2017-12-11T02:31:15.033Z,54.58
2017-12-11T02:33:47.988Z,55.81
2017-12-11T02:36:19.613Z,56.52
2017-12-11T02:38:50.509Z,56.40
2017-12-11T02:41:24.248Z,55.17
2017-12-11T02:43:55.691Z,55.52
2017-12-11T02:46:27.145Z,55.57
2017-12-11T02:48:59.164Z,56.11
2017-12-11T02:51:31.551Z,56.38
2017-12-11T02:54:05.413Z,56.58
2017-12-11T02:56:37.204Z,56.60
2017-12-11T02:59:11.947Z,56.26
2017-12-11T03:01:42.827Z,56.66
2017-12-11T03:04:14.182Z,56.32
2017-12-11T03:06:44.644Z,56.69
2017-12-11T03:09:18.196Z,56.64
2017-12-11T03:11:48.685Z,56.79
2017-12-11T03:14:21.742Z,57.92
2017-12-11T03:16:51.620Z,57.42
2017-12-11T03:19:24.344Z,57.51
2017-12-11T03:21:56.708Z,56.73
2017-12-11T03:24:29.172Z,57.63
2017-12-11T03:27:01.136Z,58.35
2017-12-11T03:29:33.543Z,57.95
2017-12-11T03:32:08.155Z,57.97
2017-12-11T03:34:45.763Z,58.23
2017-12-11T03:37:17.120Z,57.80
2017-12-11T03:39:48.203Z,59.64
2017-12-11T03:42:19.076Z,60.01
2017-12-11T03:44:50.280Z,60.57
2017-12-11T03:47:20.657Z,60.40
2017-12-11T03:49:51.334Z,60.12
2017-12-11T03:52:21.574Z,60.64
2017-12-11T03:54:56.734Z,59.38
2017-12-11T03:57:27.347Z,61.50
2017-12-11T03:59:59.249Z,60.92
2017-12-11T04:02:37.464Z,60.66
2017-12-11T04:05:09.422Z,60.68
2017-12-11T04:07:39.296Z,60.80
2017-12-11T04:10:09.355Z,60.59
2017-12-11T04:12:40.502Z,61.49
2017-12-11T04:15:11.075Z,60.60
2017-12-11T04:17:41.001Z,60.52
2017-12-11T04:20:11.687Z,62.28
2017-12-11T04:22:41.676Z,61.91
2017-12-11T04:25:11.580Z,63.44
2017-12-11T04:27:42.387Z,63.37
2017-12-11T04:30:12.925Z,62.05
2017-12-11T04:32:43.558Z,61.38
2017-12-11T04:35:20.538Z,61.14
2017-12-11T04:37:51.649Z,60.86
2017-12-11T04:40:21.743Z,61.27
2017-12-11T04:42:52.247Z,61.02
2017-12-11T04:45:24.224Z,60.68
2017-12-11T04:47:54.196Z,60.36
2017-12-11T04:53:06.644Z,60.54
2017-12-11T04:58:15.206Z,60.45
2017-12-11T05:00:47.036Z,61.20
2017-12-11T05:03:16.649Z,60.00
2017-12-11T05:05:48.357Z,60.29
2017-12-11T05:08:29.146Z,60.22
2017-12-11T05:11:11.036Z,59.18
2017-12-11T05:13:41.572Z,59.24
2017-12-11T05:16:12.348Z,60.44
2017-12-11T05:18:45.562Z,60.49
2017-12-11T05:21:21.673Z,60.00
2017-12-11T05:23:53.088Z,59.04
2017-12-11T05:26:23.547Z,59.16
2017-12-11T05:28:56.999Z,59.61
2017-12-11T05:31:28.916Z,59.88
2017-12-11T05:33:59.759Z,60.21
2017-12-11T05:36:38.659Z,59.55
2017-12-11T05:39:08.399Z,59.85
2017-12-11T05:41:39.718Z,59.41
2017-12-11T05:44:10.617Z,59.11
2017-12-11T05:46:43.073Z,58.78
2017-12-11T05:53:43.969Z,59.98
2017-12-11T05:56:16.311Z,60.19
2017-12-11T05:58:47.190Z,60.03
2017-12-11T06:01:24.919Z,60.15
2017-12-11T06:04:10.123Z,60.33
2017-12-11T06:06:40.524Z,60.89
2017-12-11T06:09:16.477Z,61.15
2017-12-11T06:14:34.739Z,61.58
2017-12-11T06:17:20.739Z,61.10
2017-12-11T06:19:51.405Z,61.19
2017-12-11T06:22:39.534Z,61.56
2017-12-11T06:25:09.751Z,62.62
2017-12-11T06:27:59.458Z,62.27
2017-12-11T06:30:32.231Z,62.16
2017-12-11T06:33:02.651Z,62.11
2017-12-11T06:35:33.349Z,62.47
2017-12-11T06:38:04.560Z,62.10
2017-12-11T06:40:36.378Z,61.04
2017-12-11T06:43:06.338Z,62.25
2017-12-11T06:45:37.319Z,62.35
2017-12-11T06:48:11.680Z,61.98
2017-12-11T06:50:42.079Z,62.70
2017-12-11T06:53:16.039Z,63.46
2017-12-11T06:55:45.510Z,63.93
2017-12-11T06:58:18.302Z,63.54
2017-12-11T07:00:49.603Z,63.18
2017-12-11T07:03:23.197Z,62.58
2017-12-11T07:06:01.497Z,62.49
2017-12-11T07:08:38.192Z,62.88
2017-12-11T07:11:23.611Z,61.61
2017-12-11T07:13:53.720Z,62.27
2017-12-11T07:16:27.537Z,62.06
2017-12-11T07:19:05.643Z,61.20
2017-12-11T07:21:36.850Z,61.39
2017-12-11T07:24:07.180Z,61.65
2017-12-11T07:26:36.865Z,61.23
2017-12-11T07:29:06.672Z,61.33
2017-12-11T07:31:38.037Z,61.50
2017-12-11T07:34:08.042Z,61.14
2017-12-11T07:36:52.733Z,60.60
2017-12-11T07:39:24.019Z,60.33
2017-12-11T07:41:53.941Z,60.00
2017-12-11T07:44:26.974Z,59.82
2017-12-11T07:46:57.261Z,60.31
2017-12-11T07:49:26.928Z,60.14
2017-12-11T07:51:58.583Z,60.33
2017-12-11T07:54:30.098Z,59.55
2017-12-11T07:57:04.012Z,59.81
2017-12-11T07:59:34.011Z,59.49
2017-12-11T08:02:04.617Z,59.58
2017-12-11T08:04:35.597Z,59.74
2017-12-11T08:07:05.406Z,59.91
2017-12-11T08:09:35.371Z,59.44
2017-12-11T08:12:05.043Z,60.29
2017-12-11T08:17:23.953Z,60.22
2017-12-11T08:19:54.570Z,60.52
2017-12-11T08:25:05.908Z,61.82
2017-12-11T08:27:35.970Z,61.80
2017-12-11T08:30:05.944Z,61.67
2017-12-11T08:32:37.176Z,60.06
2017-12-11T08:35:07.358Z,59.54
2017-12-11T08:37:43.732Z,59.02
2017-12-11T08:40:13.651Z,59.31
2017-12-11T08:42:51.197Z,59.06
2017-12-11T08:45:20.605Z,58.58
2017-12-11T08:47:50.195Z,58.54
2017-12-11T08:50:20.699Z,58.59
2017-12-11T08:52:53.674Z,57.68
2017-12-11T08:55:23.394Z,57.48
2017-12-11T08:57:53.952Z,58.04
2017-12-11T09:00:23.514Z,58.19
2017-12-11T09:03:02.992Z,57.91
2017-12-11T09:05:33.424Z,58.36
2017-12-11T09:08:08.602Z,58.08
2017-12-11T09:10:40.615Z,58.57
2017-12-11T09:13:11.432Z,58.48
2017-12-11T09:15:41.612Z,58.24
2017-12-11T09:18:13.404Z,57.01
2017-12-11T09:20:46.173Z,57.69
2017-12-11T09:23:16.205Z,57.74
2017-12-11T09:25:50.890Z,57.70
2017-12-11T09:28:24.161Z,57.79
2017-12-11T09:30:54.683Z,58.30
2017-12-11T09:33:24.381Z,58.67
2017-12-11T09:35:54.055Z,58.40
2017-12-11T09:38:29.118Z,57.83
2017-12-11T09:40:59.114Z,57.99
2017-12-11T09:43:30.267Z,57.06
2017-12-11T09:45:59.922Z,57.17
2017-12-11T09:48:29.753Z,57.14
2017-12-11T09:51:11.707Z,56.65
2017-12-11T09:53:50.309Z,57.37
2017-12-11T09:56:20.097Z,57.94
2017-12-11T09:58:53.131Z,57.60
2017-12-11T10:04:05.461Z,57.60
2017-12-11T10:06:35.453Z,57.77
2017-12-11T10:09:05.361Z,57.21
2017-12-11T10:11:35.988Z,57.89
2017-12-11T10:14:09.611Z,58.47
2017-12-11T10:16:42.161Z,58.53
2017-12-11T10:19:12.506Z,59.04
2017-12-11T10:21:44.596Z,60.06
2017-12-11T10:24:15.384Z,60.12
2017-12-11T10:26:45.038Z,59.61
2017-12-11T10:29:15.670Z,59.58
2017-12-11T10:31:45.217Z,59.47
2017-12-11T10:34:16.465Z,59.23
2017-12-11T10:36:48.792Z,59.13
2017-12-11T10:39:19.134Z,59.48
2017-12-11T10:41:50.201Z,60.33
2017-12-11T10:44:19.925Z,60.81
2017-12-11T10:46:50.825Z,60.32
2017-12-11T10:49:23.554Z,60.73
2017-12-11T10:51:53.555Z,60.08
2017-12-11T10:54:24.673Z,60.21
2017-12-11T10:57:03.332Z,60.32
2017-12-11T11:02:07.954Z,60.31
2017-12-11T11:04:37.374Z,60.23
2017-12-11T11:07:07.165Z,60.02
2017-12-11T11:09:38.898Z,60.20
2017-12-11T11:12:17.934Z,60.02
2017-12-11T11:14:52.985Z,59.41
2017-12-11T11:17:23.164Z,60.12
2017-12-11T11:19:59.324Z,60.57
2017-12-11T11:22:30.581Z,61.22
2017-12-11T11:25:00.966Z,61.11
2017-12-11T11:27:30.944Z,61.17
2017-12-11T11:30:05.097Z,60.92
2017-12-11T11:35:09.002Z,61.30
2017-12-11T11:37:48.789Z,61.01
2017-12-11T11:40:25.609Z,60.77
2017-12-11T11:42:58.878Z,60.89
2017-12-11T11:45:32.916Z,60.83
2017-12-11T11:48:10.284Z,60.38
2017-12-11T11:50:44.607Z,58.88
2017-12-11T11:53:15.125Z,59.95
2017-12-11T11:55:46.616Z,60.72
2017-12-11T11:58:19.886Z,61.11
2017-12-11T12:00:53.060Z,61.34
2017-12-11T12:03:27.660Z,60.90
2017-12-11T12:06:06.340Z,61.40
2017-12-11T12:08:39.429Z,61.66
2017-12-11T12:11:13.142Z,61.97
2017-12-11T12:13:44.175Z,61.93
2017-12-11T12:16:18.088Z,61.26
2017-12-11T12:18:48.099Z,61.20
2017-12-11T12:21:29.079Z,61.33
2017-12-11T12:26:55.426Z,62.22
2017-12-11T12:29:29.848Z,61.92
2017-12-11T12:32:02.988Z,61.76
2017-12-11T12:34:33.266Z,62.29
2017-12-11T12:37:03.622Z,62.55
2017-12-11T12:39:34.727Z,62.82
2017-12-11T12:42:05.536Z,62.29
2017-12-11T12:44:36.602Z,62.89
2017-12-11T12:47:11.437Z,63.65
2017-12-11T12:49:45.993Z,63.04
2017-12-11T12:52:24.732Z,63.83
2017-12-11T12:55:02.013Z,64.00
2017-12-11T12:57:32.928Z,64.22
2017-12-11T13:03:52.293Z,64.43
2017-12-11T13:06:22.851Z,64.52
2017-12-11T13:08:53.491Z,63.93
2017-12-11T13:11:25.138Z,64.06
2017-12-11T13:13:55.575Z,63.81
2017-12-11T13:16:27.210Z,63.53
2017-12-11T13:18:59.187Z,64.87
2017-12-11T13:21:30.918Z,64.43
2017-12-11T13:24:01.904Z,64.29
2017-12-11T13:26:32.514Z,63.81
2017-12-11T13:29:03.936Z,63.72
2017-12-11T13:31:34.039Z,63.84
2017-12-11T13:34:04.702Z,64.28
2017-12-11T13:36:35.226Z,64.59
2017-12-11T13:39:15.707Z,63.27
2017-12-11T13:41:48.230Z,63.49
2017-12-11T13:44:17.893Z,63.57
2017-12-11T13:46:56.123Z,63.67
2017-12-11T13:49:25.847Z,64.10
2017-12-11T13:51:55.624Z,64.02
2017-12-11T13:54:25.691Z,64.62
2017-12-11T13:56:57.817Z,63.79
2017-12-11T13:59:27.882Z,64.06
2017-12-11T14:04:47.558Z,64.99
2017-12-11T14:07:23.590Z,64.74
2017-12-11T14:09:54.073Z,64.29
2017-12-11T14:12:25.120Z,64.58
2017-12-11T14:14:55.088Z,64.56
2017-12-11T14:17:25.456Z,65.01
2017-12-11T14:20:04.056Z,64.52
2017-12-11T14:22:34.005Z,65.12
2017-12-11T14:28:05.981Z,65.25
2017-12-11T14:30:38.617Z,65.36
2017-12-11T14:33:08.263Z,66.27
2017-12-11T14:35:42.112Z,67.63
2017-12-11T14:38:12.704Z,67.30
2017-12-11T14:40:50.235Z,66.60
2017-12-11T14:43:22.275Z,66.19
2017-12-11T14:45:53.404Z,66.01
2017-12-11T14:48:23.209Z,67.03
2017-12-11T14:50:54.984Z,67.59
2017-12-11T14:53:26.152Z,66.47
2017-12-11T14:55:57.857Z,65.22
2017-12-11T14:58:32.834Z,65.21
2017-12-11T15:01:12.784Z,64.40
2017-12-11T15:03:43.408Z,64.99
2017-12-11T15:06:22.973Z,65.44
2017-12-11T15:08:57.449Z,65.73
2017-12-11T15:11:29.316Z,65.13
2017-12-11T15:14:04.025Z,64.98
2017-12-11T15:16:35.363Z,65.40
2017-12-11T15:19:05.961Z,66.95
2017-12-11T15:21:35.524Z,66.25
2017-12-11T15:24:07.117Z,65.79
2017-12-11T15:26:37.381Z,65.89
2017-12-11T15:29:07.421Z,65.33
2017-12-11T15:31:40.198Z,65.13
2017-12-11T15:34:09.982Z,65.45
2017-12-11T15:36:47.151Z,65.35
2017-12-11T15:39:18.226Z,64.37
2017-12-11T15:41:49.389Z,65.31
2017-12-11T15:44:19.338Z,65.48
2017-12-11T15:46:50.047Z,65.44
2017-12-11T15:49:22.958Z,65.66
2017-12-11T15:51:54.583Z,65.87
2017-12-11T15:54:25.073Z,66.44
2017-12-11T15:56:56.124Z,67.80
2017-12-11T15:59:28.260Z,68.21
2017-12-11T16:01:59.328Z,67.11
2017-12-11T16:04:32.173Z,66.41
2017-12-11T16:07:11.007Z,66.98
2017-12-11T16:09:42.694Z,67.42
2017-12-11T16:12:15.688Z,66.78
2017-12-11T16:14:50.412Z,66.61
2017-12-11T16:17:22.069Z,66.66
2017-12-11T16:19:55.230Z,67.08
2017-12-11T16:22:25.981Z,66.74
2017-12-11T16:24:58.821Z,66.49
2017-12-11T16:27:31.138Z,67.08
2017-12-11T16:30:04.700Z,67.57
2017-12-11T16:32:46.758Z,68.39
2017-12-11T16:35:23.679Z,68.94
2017-12-11T16:37:56.150Z,67.67
2017-12-11T16:40:26.177Z,67.06
2017-12-11T16:42:58.797Z,66.33
2017-12-11T16:45:38.925Z,65.64
2017-12-11T16:48:09.200Z,66.04
2017-12-11T16:50:46.733Z,66.06
2017-12-11T16:53:23.179Z,66.17
2017-12-11T16:56:02.916Z,66.75
2017-12-11T16:58:35.983Z,66.93
2017-12-11T17:01:06.600Z,66.68
2017-12-11T17:03:38.363Z,66.35
2017-12-11T17:06:11.452Z,66.29
2017-12-11T17:08:41.674Z,66.29
2017-12-11T17:11:13.223Z,65.53
2017-12-11T17:13:44.344Z,65.42
2017-12-11T17:16:19.779Z,66.13
2017-12-11T17:18:55.006Z,66.29
2017-12-11T17:21:25.094Z,66.08
2017-12-11T17:23:56.309Z,66.08
2017-12-11T17:26:25.916Z,66.08
2017-12-11T17:28:56.320Z,65.82
2017-12-11T17:31:27.273Z,65.87
2017-12-11T17:34:02.309Z,66.12
2017-12-11T17:36:33.141Z,66.61
2017-12-11T17:39:03.229Z,66.81
2017-12-11T17:41:33.937Z,66.73
2017-12-11T17:44:05.548Z,66.75
2017-12-11T17:46:36.440Z,66.25
2017-12-11T17:49:06.146Z,65.68
2017-12-11T17:51:36.156Z,66.25
2017-12-11T17:54:07.218Z,66.72
2017-12-11T17:56:37.304Z,66.48
2017-12-11T17:59:07.421Z,67.11
2017-12-11T18:01:38.616Z,67.67
2017-12-11T18:04:08.338Z,67.25
2017-12-11T18:06:39.134Z,66.41
2017-12-11T18:09:10.820Z,66.47
2017-12-11T18:11:42.110Z,66.56
2017-12-11T18:14:12.924Z,67.53
2017-12-11T18:16:42.658Z,67.56
2017-12-11T18:19:14.877Z,68.11
2017-12-11T18:21:45.262Z,68.54
2017-12-11T18:24:16.749Z,68.11
2017-12-11T18:26:48.332Z,67.89
2017-12-11T18:29:18.134Z,66.99
2017-12-11T18:31:53.610Z,67.51
2017-12-11T18:34:28.011Z,67.91
2017-12-11T18:36:59.139Z,67.71
2017-12-11T18:39:29.336Z,67.22
2017-12-11T18:42:03.573Z,67.65
2017-12-11T18:44:42.565Z,68.45
2017-12-11T18:47:15.528Z,68.54
2017-12-11T18:49:46.466Z,68.59
2017-12-11T18:52:20.464Z,68.84
2017-12-11T18:54:53.212Z,68.01
2017-12-11T18:57:48.126Z,67.65
2017-12-11T19:00:26.382Z,67.63
2017-12-11T19:02:57.237Z,66.95
2017-12-11T19:05:33.225Z,67.88
2017-12-11T19:08:05.278Z,68.74
2017-12-11T19:10:39.069Z,67.51
2017-12-11T19:13:15.436Z,67.91
2017-12-11T19:15:45.395Z,67.49
2017-12-11T19:18:16.192Z,67.33
2017-12-11T19:20:48.995Z,67.88
2017-12-11T19:23:52.887Z,68.43
2017-12-11T19:29:13.689Z,68.00
2017-12-11T19:31:46.850Z,67.79
2017-12-11T19:34:18.916Z,68.51
2017-12-11T19:36:54.654Z,68.32
2017-12-11T19:39:27.419Z,67.55
2017-12-11T19:42:00.109Z,67.74
2017-12-11T19:44:32.783Z,67.61
2017-12-11T19:47:04.861Z,66.58
2017-12-11T19:49:36.578Z,67.19
2017-12-11T19:52:07.973Z,66.42
2017-12-11T19:54:39.234Z,66.28
2017-12-11T19:57:09.979Z,66.44
2017-12-11T19:59:45.659Z,66.94
2017-12-11T20:02:15.979Z,66.99
2017-12-11T20:04:47.043Z,66.51
2017-12-11T20:07:17.584Z,67.63
2017-12-11T20:09:48.552Z,67.74
2017-12-11T20:12:20.532Z,67.82
2017-12-11T20:14:52.052Z,67.79
2017-12-11T20:17:25.165Z,67.53
2017-12-11T20:19:55.663Z,67.27
2017-12-11T20:22:31.863Z,67.39
2017-12-11T20:25:04.395Z,67.26
2017-12-11T20:27:34.558Z,67.00
2017-12-11T20:30:05.129Z,67.19
2017-12-11T20:32:38.115Z,67.81
2017-12-11T20:35:08.908Z,67.54
2017-12-11T20:37:40.725Z,66.90
2017-12-11T20:40:11.597Z,67.12
2017-12-11T20:42:43.186Z,66.96
2017-12-11T20:45:16.027Z,66.47
2017-12-11T20:47:46.696Z,66.91
2017-12-11T20:50:17.004Z,67.56
2017-12-11T20:52:49.562Z,66.74
2017-12-11T20:55:21.036Z,67.04
2017-12-11T20:57:52.872Z,67.27
2017-12-11T21:00:23.474Z,67.62
2017-12-11T21:02:53.427Z,67.49
2017-12-11T21:05:24.008Z,67.30
2017-12-11T21:07:55.228Z,67.11
2017-12-11T21:10:30.278Z,68.48
2017-12-11T21:13:01.885Z,67.77
2017-12-11T21:15:33.152Z,67.80
2017-12-11T21:18:03.348Z,67.84
2017-12-11T21:20:33.078Z,68.16
2017-12-11T21:23:06.996Z,68.55
2017-12-11T21:25:37.044Z,68.59
2017-12-11T21:28:11.159Z,68.03
2017-12-11T21:30:41.521Z,67.19
2017-12-11T21:33:15.344Z,68.00
2017-12-11T21:35:57.595Z,68.43
2017-12-11T21:38:29.112Z,69.25
2017-12-11T21:41:06.584Z,69.38
2017-12-11T21:43:40.404Z,69.69
2017-12-11T21:46:14.794Z,69.37
2017-12-11T21:48:47.984Z,68.64
2017-12-11T21:51:24.215Z,68.82
2017-12-11T21:53:57.384Z,69.64
2017-12-11T21:56:28.490Z,69.83
2017-12-11T21:59:02.584Z,69.79
2017-12-11T22:01:40.073Z,70.01
2017-12-11T22:10:36.740Z,69.41
2017-12-11T22:13:21.932Z,69.58
2017-12-11T22:15:52.245Z,68.09
2017-12-11T22:18:28.124Z,67.75
2017-12-11T22:21:02.138Z,68.96
2017-12-11T22:23:33.377Z,68.35
2017-12-11T22:26:07.423Z,69.26
2017-12-11T22:28:42.299Z,68.38
2017-12-11T22:31:13.093Z,67.60
2017-12-11T22:33:44.809Z,68.39
2017-12-11T22:36:16.273Z,69.72
2017-12-11T22:38:48.322Z,68.32
2017-12-11T22:41:19.203Z,68.99
2017-12-11T22:46:29.659Z,70.84
2017-12-11T22:49:00.087Z,70.18
2017-12-11T22:51:36.224Z,69.39
2017-12-11T22:54:18.150Z,68.75
2017-12-11T22:56:50.514Z,69.93
2017-12-11T22:59:22.846Z,70.19
2017-12-11T23:01:56.885Z,70.83
2017-12-11T23:04:31.571Z,69.47
2017-12-11T23:09:48.836Z,69.35
2017-12-11T23:25:38.908Z,68.63
2017-12-11T23:28:11.662Z,69.28
2017-12-11T23:31:17.015Z,69.00
2017-12-11T23:34:26.897Z,68.51
2017-12-11T23:37:19.202Z,70.96
2017-12-11T23:40:09.564Z,71.37
2017-12-11T23:46:42.951Z,69.91
2017-12-11T23:50:09.226Z,69.47
2017-12-11T23:52:42.477Z,69.72
2017-12-11T23:58:27.034Z,69.66
